Time;durP1;ratioP1;P1;durP2;ratioP2;P2;SDS_P1;SDS_P2;PMS_P1;PMS_P2;Temp;Humidity;BMP_temperature;BMP_pressure;BME280_temperature;BME280_humidity;BME280_pressure;Samples;Min_cycle;Max_cycle;Signal;HPM_P1;HPM_P2
2022/01/27 00:01:38;;;;;;;33.10;19.27;;;;;;;2.81;100.00;101890.72;5077327;28;20272;-51
2022/01/27 00:04:12;;;;;;;37.50;19.27;;;;;;;2.88;100.00;101889.31;5080783;28;20232;-51
2022/01/27 00:06:40;;;;;;;35.13;17.77;;;;;;;2.83;100.00;101886.47;5082631;27;20252;-50
2022/01/27 00:09:15;;;;;;;33.33;19.60;;;;;;;2.74;100.00;101880.84;5086853;28;20580;-50
2022/01/27 00:11:44;;;;;;;29.20;18.40;;;;;;;2.69;100.00;101874.53;5080697;28;20701;-50
2022/01/27 00:14:12;;;;;;;35.03;17.80;;;;;;;2.72;100.00;101879.88;5074299;28;20381;-52
2022/01/27 00:16:42;;;;;;;35.00;19.20;;;;;;;2.61;100.00;101874.16;5082283;28;20939;-51
2022/01/27 00:19:09;;;;;;;31.13;19.00;;;;;;;2.57;100.00;101871.34;5086536;27;20314;-51
2022/01/27 00:21:36;;;;;;;30.40;18.77;;;;;;;2.58;100.00;101857.56;5073809;27;21623;-53
2022/01/27 00:24:02;;;;;;;30.50;17.43;;;;;;;2.66;100.00;101851.03;5086696;28;20570;-52
2022/01/27 00:26:30;;;;;;;33.83;18.43;;;;;;;2.67;100.00;101859.72;5082827;28;20230;-54
2022/01/27 00:28:57;;;;;;;31.70;17.67;;;;;;;2.57;100.00;101851.50;5084344;28;20939;-52
2022/01/27 00:31:23;;;;;;;31.63;16.63;;;;;;;2.66;100.00;101848.44;5079401;28;20707;-55
2022/01/27 00:33:51;;;;;;;28.13;16.13;;;;;;;2.74;100.00;101854.00;5080976;28;20230;-52
2022/01/27 00:36:18;;;;;;;34.30;17.43;;;;;;;2.84;100.00;101849.38;5073591;28;20261;-54
2022/01/27 00:38:45;;;;;;;29.50;17.13;;;;;;;2.81;100.00;101836.25;5080117;28;20321;-51
2022/01/27 00:41:11;;;;;;;30.53;15.33;;;;;;;2.82;100.00;101831.94;5083493;28;20256;-51
2022/01/27 00:43:39;;;;;;;29.67;16.13;;;;;;;2.87;100.00;101820.97;5078486;27;20301;-52
2022/01/27 00:46:10;;;;;;;28.20;15.83;;;;;;;2.83;100.00;101811.25;5080016;27;20234;-50
2022/01/27 00:48:36;;;;;;;28.87;17.83;;;;;;;2.71;100.00;101802.03;5079074;28;20254;-51
2022/01/27 00:51:05;;;;;;;30.90;17.53;;;;;;;2.74;100.00;101807.34;5081543;28;20305;-50
2022/01/27 00:53:40;;;;;;;29.00;16.83;;;;;;;2.77;100.00;101798.03;5083301;27;20299;-53
2022/01/27 00:56:17;;;;;;;29.50;16.53;;;;;;;2.72;100.00;101812.47;5080145;28;20225;-50
2022/01/27 00:58:53;;;;;;;28.97;16.90;;;;;;;2.59;100.00;101802.31;5082293;28;20240;-51
2022/01/27 01:01:24;;;;;;;27.53;15.87;;;;;;;2.69;100.00;101799.34;5077656;28;20229;-51
2022/01/27 01:03:52;;;;;;;32.53;16.53;;;;;;;2.78;100.00;101784.22;5075210;28;20321;-55
2022/01/27 01:06:31;;;;;;;39.07;16.33;;;;;;;2.79;100.00;101795.50;5072204;28;20229;-50
2022/01/27 01:12:52;;;;;;;27.57;16.07;;;;;;;2.82;100.00;101780.97;5086078;27;20626;-52
2022/01/27 01:15:14;;;;;;;32.07;15.63;;;;;;;2.70;100.00;101770.00;5086816;28;20225;-52
2022/01/27 01:17:54;;;;;;;26.67;14.53;;;;;;;2.61;100.00;101764.41;5081660;28;20239;-51
2022/01/27 01:20:32;;;;;;;27.17;14.57;;;;;;;2.58;100.00;101761.66;5082953;28;20236;-50
2022/01/27 01:31:16;;;;;;;28.83;14.30;;;;;;;2.91;100.00;101766.63;5079838;27;20297;-55
2022/01/27 01:33:44;;;;;;;20.43;12.73;;;;;;;2.94;100.00;101766.78;5081136;28;20319;-49
2022/01/27 01:36:16;;;;;;;24.07;14.17;;;;;;;2.96;100.00;101772.94;5081635;27;20241;-51
2022/01/27 01:38:44;;;;;;;21.00;14.53;;;;;;;2.95;100.00;101765.97;5083169;27;20710;-51
2022/01/27 01:41:11;;;;;;;24.33;14.60;;;;;;;2.78;100.00;101773.88;5082031;27;20306;-51
2022/01/27 01:43:38;;;;;;;23.27;13.17;;;;;;;2.83;100.00;101758.50;5085646;28;20677;-51
2022/01/27 01:46:04;;;;;;;22.67;13.83;;;;;;;2.80;100.00;101751.47;5079388;28;20254;-51
2022/01/27 01:48:32;;;;;;;27.10;15.87;;;;;;;2.79;100.00;101749.69;5076398;27;20285;-51
2022/01/27 01:50:58;;;;;;;29.57;14.63;;;;;;;2.87;100.00;101757.84;5081729;27;20306;-52
2022/01/27 01:53:26;;;;;;;25.63;15.53;;;;;;;2.90;100.00;101738.94;5080365;27;20234;-52
2022/01/27 01:55:52;;;;;;;24.17;14.07;;;;;;;2.94;100.00;101723.56;5076743;28;20232;-51
2022/01/27 01:58:19;;;;;;;19.37;12.83;;;;;;;2.98;100.00;101716.81;5071856;28;20239;-52
2022/01/27 02:00:45;;;;;;;19.70;12.70;;;;;;;3.01;100.00;101706.59;5078813;27;20249;-50
2022/01/27 02:03:11;;;;;;;19.63;12.30;;;;;;;3.04;100.00;101714.50;5083101;28;20265;-50
2022/01/27 02:05:46;;;;;;;20.47;13.47;;;;;;;2.98;100.00;101693.47;5080574;28;20330;-52
2022/01/27 02:08:31;;;;;;;24.83;13.90;;;;;;;2.95;100.00;101688.16;5076388;28;20376;-50
2022/01/27 02:20:03;;;;;;;19.27;12.73;;;;;;;3.02;100.00;101669.44;5099519;27;20229;-52
2022/01/27 02:22:29;;;;;;;22.43;12.93;;;;;;;2.94;100.00;101665.63;5098894;28;20230;-54
2022/01/27 02:24:55;;;;;;;16.33;11.47;;;;;;;3.00;100.00;101655.53;5086868;28;20260;-52
2022/01/27 02:27:22;;;;;;;20.83;13.83;;;;;;;2.92;100.00;101646.53;5073140;28;20327;-52
2022/01/27 02:29:49;;;;;;;16.80;10.93;;;;;;;2.93;100.00;101645.72;5077861;28;20324;-51
2022/01/27 02:32:16;;;;;;;17.27;10.97;;;;;;;2.95;100.00;101634.59;5078615;28;20272;-51
2022/01/27 02:34:43;;;;;;;17.97;11.27;;;;;;;3.04;100.00;101636.69;5079979;28;20298;-53
2022/01/27 02:37:11;;;;;;;22.57;14.07;;;;;;;3.07;100.00;101626.44;5078635;27;22452;-52
2022/01/27 02:39:38;;;;;;;18.63;12.70;;;;;;;2.96;100.00;101643.25;5081715;28;20262;-50
2022/01/27 02:42:07;;;;;;;17.00;11.40;;;;;;;3.04;100.00;101639.28;5080195;28;20318;-50
2022/01/27 02:44:35;;;;;;;17.20;11.57;;;;;;;3.05;100.00;101638.47;5081065;28;20292;-53
2022/01/27 02:47:02;;;;;;;18.87;12.23;;;;;;;3.21;100.00;101640.91;5078734;27;20256;-52
2022/01/27 02:49:28;;;;;;;17.03;12.07;;;;;;;3.08;100.00;101633.41;5081376;28;20327;-50
2022/01/27 02:51:55;;;;;;;18.83;11.67;;;;;;;3.10;100.00;101626.59;5080425;27;20334;-52
2022/01/27 02:54:22;;;;;;;16.20;11.13;;;;;;;3.17;100.00;101620.84;5081176;27;20288;-51
2022/01/27 02:56:49;;;;;;;17.77;10.83;;;;;;;3.24;100.00;101622.00;5081216;28;20419;-52
2022/01/27 02:59:16;;;;;;;16.20;11.33;;;;;;;3.13;100.00;101618.94;5079442;28;20345;-51
2022/01/27 03:01:44;;;;;;;18.37;12.37;;;;;;;3.11;100.00;101615.38;5079104;28;20269;-52
2022/01/27 03:04:10;;;;;;;16.00;11.37;;;;;;;3.11;100.00;101602.41;5080866;28;20243;-52
2022/01/27 03:06:37;;;;;;;18.10;11.70;;;;;;;3.19;100.00;101589.75;5080919;27;20269;-56
2022/01/27 03:09:03;;;;;;;21.70;12.47;;;;;;;3.20;100.00;101595.03;5076255;28;20317;-56
2022/01/27 03:11:39;;;;;;;15.97;11.27;;;;;;;3.16;100.00;101590.53;5074182;28;20258;-51
2022/01/27 03:14:06;;;;;;;17.47;11.53;;;;;;;3.21;100.00;101583.81;5073601;27;20240;-50
2022/01/27 03:16:32;;;;;;;20.10;12.23;;;;;;;3.14;100.00;101570.53;5074049;28;20236;-50
2022/01/27 03:19:00;;;;;;;18.47;11.37;;;;;;;3.18;100.00;101568.13;5083085;28;20241;-51
2022/01/27 03:21:26;;;;;;;15.73;10.70;;;;;;;3.21;100.00;101572.56;5078138;28;20238;-49
2022/01/27 03:23:53;;;;;;;18.30;11.87;;;;;;;3.18;100.00;101552.56;5080046;28;20754;-51
2022/01/27 03:26:19;;;;;;;16.97;10.87;;;;;;;3.20;100.00;101556.13;5081655;28;20237;-52
2022/01/27 03:28:47;;;;;;;18.20;11.47;;;;;;;3.18;100.00;101557.75;5077810;27;20578;-52
2022/01/27 03:31:13;;;;;;;16.13;10.40;;;;;;;3.26;100.00;101550.28;5069602;27;20261;-50
2022/01/27 03:33:40;;;;;;;18.87;12.57;;;;;;;3.39;100.00;101554.28;5069131;28;20261;-50
2022/01/27 03:36:06;;;;;;;16.97;11.83;;;;;;;3.38;100.00;101555.09;5077813;28;20229;-52
2022/01/27 03:38:33;;;;;;;15.73;10.90;;;;;;;3.33;100.00;101548.03;5083597;28;20253;-51
2022/01/27 03:41:04;;;;;;;17.57;12.00;;;;;;;3.27;100.00;101539.97;5079771;28;20246;-49
2022/01/27 03:43:30;;;;;;;16.90;10.87;;;;;;;3.31;100.00;101541.88;5080029;27;20663;-51
2022/01/27 03:45:57;;;;;;;14.77;11.03;;;;;;;3.27;100.00;101537.38;5078447;27;20253;-52
2022/01/27 03:48:24;;;;;;;15.50;11.57;;;;;;;3.24;100.00;101542.44;5074197;28;20241;-51
2022/01/27 03:50:50;;;;;;;16.07;11.73;;;;;;;3.22;100.00;101527.63;5077242;27;20753;-53
2022/01/27 03:53:16;;;;;;;15.60;11.03;;;;;;;3.36;100.00;101526.47;5079588;28;20288;-51
2022/01/27 03:55:43;;;;;;;15.03;11.00;;;;;;;3.26;100.00;101500.97;5076243;27;20289;-51
2022/01/27 03:58:09;;;;;;;15.10;10.50;;;;;;;3.27;100.00;101513.16;5079499;27;20306;-51
2022/01/27 04:00:36;;;;;;;15.90;12.13;;;;;;;3.19;100.00;101518.00;5079671;28;20892;-51
2022/01/27 04:03:06;;;;;;;19.00;11.60;;;;;;;3.17;100.00;101519.66;5080965;28;20314;-51
2022/01/27 04:05:37;;;;;;;17.07;11.73;;;;;;;3.22;100.00;101507.75;5077024;28;20315;-52
2022/01/27 04:08:04;;;;;;;17.70;11.70;;;;;;;3.19;100.00;101523.19;5078470;27;20238;-51
2022/01/27 04:10:31;;;;;;;14.33;11.13;;;;;;;3.25;100.00;101513.06;5082556;28;20655;-52
2022/01/27 04:12:57;;;;;;;17.87;11.70;;;;;;;3.25;100.00;101514.78;5077768;27;20287;-49
2022/01/27 04:15:24;;;;;;;14.80;10.67;;;;;;;3.28;100.00;101507.13;5074983;27;20287;-50
2022/01/27 04:17:51;;;;;;;17.60;11.23;;;;;;;3.30;100.00;101508.97;5078830;27;20264;-51
2022/01/27 04:20:19;;;;;;;15.77;10.40;;;;;;;3.40;100.00;101504.13;5081010;28;20249;-53
2022/01/27 04:22:46;;;;;;;13.07;10.80;;;;;;;3.39;100.00;101500.66;5080542;28;20322;-49
2022/01/27 04:25:13;;;;;;;17.57;11.60;;;;;;;3.32;100.00;101494.31;5075464;28;20282;-51
2022/01/27 04:27:43;;;;;;;17.87;10.57;;;;;;;3.39;100.00;101507.56;5078722;28;20316;-53
2022/01/27 04:30:15;;;;;;;15.47;10.30;;;;;;;3.39;100.00;101491.97;5079413;27;20770;-50
2022/01/27 04:32:46;;;;;;;14.10;9.63;;;;;;;3.50;100.00;101491.56;5080564;28;20238;-52
2022/01/27 04:35:16;;;;;;;17.37;10.80;;;;;;;3.62;100.00;101492.91;5066105;28;20427;-52
2022/01/27 04:37:56;;;;;;;15.37;9.30;;;;;;;3.56;100.00;101494.41;5076273;28;20241;-51
2022/01/27 04:40:30;;;;;;;12.37;9.53;;;;;;;3.54;100.00;101489.97;5070219;27;20330;-52
2022/01/27 04:43:02;;;;;;;14.43;9.13;;;;;;;3.60;100.00;101472.06;5079736;27;20290;-52
2022/01/27 04:45:35;;;;;;;10.73;8.10;;;;;;;3.58;100.00;101476.31;5080145;28;20891;-54
2022/01/27 04:48:09;;;;;;;11.13;9.20;;;;;;;3.47;100.00;101475.00;5074063;28;20229;-53
2022/01/27 04:50:36;;;;;;;10.77;8.87;;;;;;;3.60;100.00;101479.84;5080245;28;20313;-51
2022/01/27 04:53:07;;;;;;;11.03;7.93;;;;;;;3.68;100.00;101488.81;5076983;27;20279;-52
2022/01/27 04:55:33;;;;;;;11.83;8.50;;;;;;;3.61;100.00;101475.53;5079333;28;20305;-52
2022/01/27 04:58:09;;;;;;;12.63;8.20;;;;;;;3.65;100.00;101465.34;5074635;27;20249;-52
2022/01/27 05:00:36;;;;;;;11.17;8.27;;;;;;;3.66;100.00;101454.13;5080994;27;20241;-52
2022/01/27 05:03:11;;;;;;;11.53;8.97;;;;;;;3.62;100.00;101439.28;5081054;28;20844;-51
2022/01/27 05:05:38;;;;;;;9.03;7.10;;;;;;;3.69;100.00;101449.06;5081868;27;20225;-52
2022/01/27 05:08:10;;;;;;;10.10;7.47;;;;;;;3.65;100.00;101439.38;5083155;28;20246;-51
2022/01/27 05:10:36;;;;;;;9.23;8.03;;;;;;;3.66;100.00;101437.66;5083604;27;20284;-49
2022/01/27 05:13:08;;;;;;;11.47;8.03;;;;;;;3.66;100.00;101432.47;5079558;27;20242;-54
2022/01/27 05:15:42;;;;;;;11.37;7.37;;;;;;;3.62;100.00;101421.09;5082345;27;20250;-51
2022/01/27 05:18:08;;;;;;;8.33;6.77;;;;;;;3.54;100.00;101422.47;5083472;28;20247;-52
2022/01/27 05:20:34;;;;;;;9.63;6.93;;;;;;;3.55;100.00;101408.69;5083232;28;20238;-54
2022/01/27 05:23:01;;;;;;;9.97;8.10;;;;;;;3.55;100.00;101414.78;5081628;27;20258;-50
2022/01/27 05:25:29;;;;;;;10.37;7.47;;;;;;;3.66;100.00;101407.38;5082642;28;20732;-52
2022/01/27 05:27:55;;;;;;;8.30;6.80;;;;;;;3.64;100.00;101400.38;5077435;28;20234;-52
2022/01/27 05:30:21;;;;;;;9.73;7.57;;;;;;;3.62;100.00;101389.06;5080839;28;20695;-53
2022/01/27 05:32:48;;;;;;;11.00;8.63;;;;;;;3.65;100.00;101379.66;5092163;27;20252;-52
2022/01/27 05:35:14;;;;;;;8.53;7.67;;;;;;;3.66;100.00;101386.63;5095835;28;20275;-50
2022/01/27 05:37:41;;;;;;;8.80;7.87;;;;;;;3.59;100.00;101363.84;5096676;28;20298;-51
2022/01/27 05:40:08;;;;;;;13.10;8.53;;;;;;;3.52;100.00;101370.53;5088570;27;20244;-51
2022/01/27 05:42:36;;;;;;;9.67;7.63;;;;;;;3.55;100.00;101374.94;5083452;28;20258;-51
2022/01/27 05:45:03;;;;;;;9.33;7.80;;;;;;;3.52;100.00;101361.84;5081790;27;20298;-52
2022/01/27 05:47:29;;;;;;;9.80;8.07;;;;;;;3.57;100.00;101371.56;5082579;28;20909;-54
2022/01/27 05:49:56;;;;;;;9.27;7.77;;;;;;;3.60;100.00;101370.81;5073907;27;20272;-49
2022/01/27 05:52:22;;;;;;;10.03;7.63;;;;;;;3.56;100.00;101379.31;5086008;28;21004;-52
2022/01/27 05:54:48;;;;;;;12.77;7.87;;;;;;;3.64;100.00;101370.09;5080921;28;20229;-52
2022/01/27 05:57:15;;;;;;;10.60;8.60;;;;;;;3.58;100.00;101362.09;5082137;27;20256;-54
2022/01/27 05:59:42;;;;;;;12.23;8.90;;;;;;;3.50;100.00;101381.66;5077451;27;20607;-51
2022/01/27 06:02:09;;;;;;;10.47;9.37;;;;;;;3.34;100.00;101368.13;5076640;27;20257;-51
2022/01/27 06:04:35;;;;;;;12.23;9.40;;;;;;;3.33;100.00;101355.06;5080643;27;20306;-52
2022/01/27 06:07:01;;;;;;;12.10;9.60;;;;;;;3.31;100.00;101352.41;5076872;28;20249;-53
2022/01/27 06:09:28;;;;;;;13.63;8.70;;;;;;;3.24;100.00;101342.63;5074497;28;20270;-51
2022/01/27 06:11:54;;;;;;;13.27;9.50;;;;;;;3.22;100.00;101349.47;5067986;27;20298;-52
2022/01/27 06:14:20;;;;;;;13.03;10.57;;;;;;;3.26;100.00;101337.50;5070923;28;20813;-52
2022/01/27 06:16:48;;;;;;;15.27;10.43;;;;;;;3.31;100.00;101333.38;5077944;28;20366;-50
2022/01/27 06:19:15;;;;;;;16.67;12.33;;;;;;;3.30;100.00;101335.09;5074430;28;20238;-51
2022/01/27 06:21:43;;;;;;;15.43;11.97;;;;;;;3.22;100.00;101339.09;5078389;27;20253;-51
2022/01/27 06:24:10;;;;;;;14.97;11.63;;;;;;;3.28;100.00;101336.72;5075285;27;25116;-50
2022/01/27 06:26:36;;;;;;;16.63;12.10;;;;;;;3.26;100.00;101332.28;5067742;28;20359;-49
2022/01/27 06:29:03;;;;;;;15.73;12.10;;;;;;;3.27;100.00;101334.09;5075638;27;20354;-52
2022/01/27 06:31:30;;;;;;;13.60;12.13;;;;;;;3.32;100.00;101330.81;5082623;27;20314;-51
2022/01/27 06:33:57;;;;;;;13.90;11.10;;;;;;;3.33;100.00;101323.91;5079443;28;20713;-50
2022/01/27 06:36:24;;;;;;;17.20;13.03;;;;;;;3.30;100.00;101305.63;5078388;28;20244;-51
2022/01/27 06:38:50;;;;;;;16.23;13.70;;;;;;;3.37;100.00;101319.72;5083680;28;20300;-50
2022/01/27 06:41:16;;;;;;;16.37;12.20;;;;;;;3.28;100.00;101315.09;5082642;28;20225;-50
2022/01/27 06:43:43;;;;;;;17.93;12.93;;;;;;;3.20;100.00;101311.34;5082484;28;20667;-50
2022/01/27 06:46:09;;;;;;;21.00;13.77;;;;;;;3.27;100.00;101303.81;5090786;28;20251;-52
2022/01/27 06:48:36;;;;;;;17.83;12.87;;;;;;;3.19;100.00;101328.56;5086236;27;20244;-54
2022/01/27 06:51:05;;;;;;;19.03;13.60;;;;;;;3.22;100.00;101315.72;5083824;27;20231;-54
2022/01/27 06:53:31;;;;;;;16.63;12.83;;;;;;;3.20;100.00;101312.22;5072709;28;20236;-53
2022/01/27 06:55:58;;;;;;;18.97;13.20;;;;;;;3.40;100.00;101317.25;5073794;28;20226;-52
2022/01/27 06:58:24;;;;;;;21.80;14.30;;;;;;;3.43;100.00;101320.84;5080985;28;20490;-54
2022/01/27 07:00:51;;;;;;;19.30;14.23;;;;;;;3.44;100.00;101322.63;5071424;27;20258;-52
2022/01/27 07:03:17;;;;;;;22.97;15.30;;;;;;;3.43;100.00;101315.66;5079805;28;20264;-52
2022/01/27 07:05:43;;;;;;;20.47;14.97;;;;;;;3.39;100.00;101312.91;5078959;27;20670;-53
2022/01/27 07:08:11;;;;;;;21.67;15.43;;;;;;;3.32;100.00;101322.16;5080105;27;20238;-51
2022/01/27 07:10:37;;;;;;;21.63;15.67;;;;;;;3.40;100.00;101314.66;5081774;28;20233;-51
2022/01/27 07:13:04;;;;;;;21.47;14.87;;;;;;;3.40;100.00;101305.16;5077855;27;20321;-53
2022/01/27 07:15:31;;;;;;;23.63;15.87;;;;;;;3.43;100.00;101304.38;5081549;27;20268;-53
2022/01/27 07:17:57;;;;;;;23.70;15.60;;;;;;;3.54;100.00;101301.34;5081979;27;20245;-51
2022/01/27 07:20:23;;;;;;;26.40;15.40;;;;;;;3.51;100.00;101302.94;5081995;28;20253;-51
2022/01/27 07:22:50;;;;;;;24.40;15.97;;;;;;;3.47;100.00;101306.25;5080896;27;20238;-54
2022/01/27 07:25:18;;;;;;;29.27;18.13;;;;;;;3.48;100.00;101300.28;5078660;27;20245;-52
2022/01/27 07:27:44;;;;;;;23.63;16.33;;;;;;;3.43;100.00;101300.06;5080726;27;20237;-51
2022/01/27 07:30:11;;;;;;;30.13;18.53;;;;;;;3.39;100.00;101302.50;5070152;27;20241;-52
2022/01/27 07:32:38;;;;;;;25.60;18.77;;;;;;;3.45;100.00;101302.75;5082256;28;20241;-51
2022/01/27 07:35:05;;;;;;;29.43;17.97;;;;;;;3.62;100.00;101291.28;5082365;27;20229;-51
2022/01/27 07:37:31;;;;;;;26.07;19.43;;;;;;;3.53;100.00;101293.53;5076684;28;20249;-52
2022/01/27 07:39:58;;;;;;;27.93;18.40;;;;;;;3.48;100.00;101282.97;5079916;28;20233;-53
2022/01/27 07:42:25;;;;;;;32.10;20.87;;;;;;;3.45;100.00;101287.19;5081119;27;20275;-51
2022/01/27 07:44:52;;;;;;;28.80;19.90;;;;;;;3.53;100.00;101280.53;5077310;28;20290;-52
2022/01/27 07:47:18;;;;;;;30.33;20.23;;;;;;;3.56;100.00;101270.28;5082027;28;20241;-51
2022/01/27 07:49:44;;;;;;;33.60;20.10;;;;;;;3.45;100.00;101279.38;5083361;28;20241;-53
2022/01/27 07:52:11;;;;;;;33.93;21.07;;;;;;;3.27;100.00;101282.19;5079552;28;20246;-53
2022/01/27 07:54:37;;;;;;;32.67;22.20;;;;;;;3.31;100.00;101277.16;5079696;28;20241;-50
2022/01/27 07:57:04;;;;;;;33.60;21.03;;;;;;;3.31;100.00;101271.97;5070922;27;20242;-52
2022/01/27 07:59:32;;;;;;;32.23;22.80;;;;;;;3.33;100.00;101266.81;5075106;28;20732;-59
2022/01/27 08:01:58;;;;;;;32.40;22.40;;;;;;;3.14;100.00;101272.16;5079147;28;20234;-49
2022/01/27 08:04:26;;;;;;;31.50;20.47;;;;;;;3.23;100.00;101260.44;5081017;28;20242;-53
2022/01/27 08:06:52;;;;;;;34.07;21.93;;;;;;;3.28;100.00;101264.06;5080930;28;20263;-52
2022/01/27 08:09:18;;;;;;;28.60;19.77;;;;;;;3.39;100.00;101261.88;5081074;27;20230;-51
2022/01/27 08:11:45;;;;;;;31.03;20.20;;;;;;;3.48;100.00;101250.94;5081541;28;20248;-51
2022/01/27 08:14:12;;;;;;;29.23;20.67;;;;;;;3.38;100.00;101261.81;5079553;28;20644;-53
2022/01/27 08:16:40;;;;;;;30.00;19.70;;;;;;;3.28;100.00;101248.50;5080256;28;20496;-51
2022/01/27 08:19:06;;;;;;;33.83;20.60;;;;;;;3.27;100.00;101245.88;5072567;28;20772;-53
2022/01/27 08:21:33;;;;;;;33.70;21.80;;;;;;;3.29;100.00;101242.47;5073345;28;20337;-53
2022/01/27 08:23:59;;;;;;;32.20;20.00;;;;;;;3.38;100.00;101257.50;5080990;28;20291;-53
2022/01/27 08:26:36;;;;;;;35.20;21.23;;;;;;;3.41;100.00;101255.03;5080272;28;20231;-53
2022/01/27 08:29:12;;;;;;;33.83;20.40;;;;;;;3.16;100.00;101229.91;5080500;28;20867;-50
2022/01/27 08:31:56;;;;;;;33.83;19.33;;;;;;;3.22;100.00;101229.22;5085056;27;20260;-50
2022/01/27 08:34:29;;;;;;;28.93;19.73;;;;;;;3.21;100.00;101230.06;5079562;27;20388;-54
2022/01/27 08:36:56;;;;;;;31.87;19.83;;;;;;;3.21;100.00;101224.88;5075397;28;20225;-51
2022/01/27 08:39:22;;;;;;;30.83;19.93;;;;;;;3.25;100.00;101222.44;5080680;28;20238;-50
2022/01/27 08:41:49;;;;;;;28.67;19.97;;;;;;;3.08;100.00;101223.53;5085552;28;20229;-52
2022/01/27 08:44:15;;;;;;;27.17;19.40;;;;;;;3.03;100.00;101223.38;5080425;27;20306;-53
2022/01/27 08:46:43;;;;;;;33.77;18.27;;;;;;;2.99;100.00;101207.63;5075000;28;20237;-53
2022/01/27 08:49:09;;;;;;;33.63;20.30;;;;;;;3.10;100.00;101212.38;5078941;28;20306;-54
2022/01/27 08:51:36;;;;;;;27.33;19.43;;;;;;;3.14;100.00;101196.94;5082569;28;20248;-53
2022/01/27 08:54:02;;;;;;;30.07;21.00;;;;;;;3.18;100.00;101202.28;5084196;27;20226;-51
2022/01/27 08:56:29;;;;;;;29.53;19.17;;;;;;;3.18;100.00;101204.00;5083339;28;20666;-50
2022/01/27 08:58:56;;;;;;;31.93;20.27;;;;;;;3.14;100.00;101192.63;5080444;27;20318;-52
2022/01/27 09:01:23;;;;;;;24.30;16.73;;;;;;;3.26;100.00;101198.25;5068377;27;20742;-51
2022/01/27 09:03:51;;;;;;;27.30;19.87;;;;;;;3.27;100.00;101200.03;5078330;28;20236;-51
2022/01/27 09:06:18;;;;;;;29.67;19.13;;;;;;;3.36;100.00;101194.28;5082371;28;20253;-52
2022/01/27 09:08:45;;;;;;;23.20;16.97;;;;;;;3.38;100.00;101196.94;5082093;28;20306;-53
2022/01/27 09:11:12;;;;;;;28.30;18.80;;;;;;;3.53;100.00;101197.47;5087511;28;20298;-52
2022/01/27 09:13:38;;;;;;;24.90;17.73;;;;;;;3.47;100.00;101182.56;5079272;27;20328;-54
2022/01/27 09:16:06;;;;;;;30.77;18.37;;;;;;;3.47;100.00;101168.69;5084110;27;20259;-52
2022/01/27 09:18:33;;;;;;;29.23;17.60;;;;;;;3.55;100.00;101162.06;5083684;28;20896;-52
2022/01/27 09:21:04;;;;;;;30.83;18.70;;;;;;;3.45;100.00;101178.16;5074891;28;20279;-52
2022/01/27 09:23:31;;;;;;;27.47;17.33;;;;;;;3.53;100.00;101159.41;5077348;28;20238;-53
2022/01/27 09:26:03;;;;;;;29.33;20.40;;;;;;;3.51;100.00;101170.56;5078478;28;20229;-55
2022/01/27 09:28:30;;;;;;;28.63;15.70;;;;;;;3.46;100.00;101185.09;5078122;28;20238;-52
2022/01/27 09:30:56;;;;;;;30.57;17.33;;;;;;;3.45;100.00;101189.41;5080793;28;20230;-53
2022/01/27 09:33:23;;;;;;;26.97;17.07;;;;;;;3.40;100.00;101192.66;5079819;27;20651;-52
2022/01/27 09:35:50;;;;;;;29.77;17.57;;;;;;;3.48;100.00;101204.22;5087550;28;20617;-51
2022/01/27 09:38:17;;;;;;;27.03;16.63;;;;;;;3.49;100.00;101170.53;5089364;28;20234;-53
2022/01/27 09:40:47;;;;;;;23.40;16.47;;;;;;;3.54;100.00;101178.47;5089725;27;20236;-52
2022/01/27 09:43:14;;;;;;;30.00;18.23;;;;;;;3.53;100.00;101181.91;5086227;28;20248;-53
2022/01/27 09:45:40;;;;;;;23.77;16.63;;;;;;;3.37;100.00;101184.78;5084994;27;20242;-51
2022/01/27 09:48:13;;;;;;;23.37;17.23;;;;;;;3.38;100.00;101176.19;5082179;28;20648;-52
2022/01/27 09:50:49;;;;;;;22.60;15.50;;;;;;;3.25;100.00;101188.69;5071925;27;20226;-53
2022/01/27 09:53:17;;;;;;;23.30;14.87;;;;;;;3.28;100.00;101170.66;5072680;27;20321;-52
2022/01/27 09:55:45;;;;;;;27.83;15.93;;;;;;;3.25;100.00;101178.31;5066442;28;20287;-51
2022/01/27 09:58:11;;;;;;;22.53;16.70;;;;;;;3.09;100.00;101161.34;5079931;28;20327;-55
2022/01/27 10:00:38;;;;;;;26.20;15.70;;;;;;;3.16;100.00;101162.44;5081802;28;20229;-51
2022/01/27 10:03:07;;;;;;;28.83;17.97;;;;;;;2.80;100.00;101161.97;5073750;27;20242;-49
2022/01/27 10:05:34;;;;;;;24.43;16.20;;;;;;;2.86;100.00;101144.94;5073886;28;20238;-53
2022/01/27 10:08:08;;;;;;;28.27;16.10;;;;;;;2.81;100.00;101146.50;5076006;28;20310;-53
2022/01/27 10:10:37;;;;;;;46.80;24.77;;;;;;;2.76;100.00;101148.00;5078983;28;20242;-53
2022/01/27 10:13:06;;;;;;;29.63;17.40;;;;;;;2.64;100.00;101150.16;5067548;28;20241;-53
2022/01/27 10:15:37;;;;;;;25.50;15.93;;;;;;;2.67;100.00;101147.69;5082048;28;20245;-53
2022/01/27 10:18:07;;;;;;;27.00;15.43;;;;;;;2.81;100.00;101149.06;5080556;27;20257;-50
2022/01/27 10:20:34;;;;;;;26.50;16.10;;;;;;;2.86;100.00;101136.28;5078022;28;20239;-52
2022/01/27 10:23:16;;;;;;;27.03;16.13;;;;;;;2.84;100.00;101146.59;5082038;28;20261;-53
2022/01/27 10:25:51;;;;;;;25.20;15.93;;;;;;;2.83;100.00;101134.44;5078338;28;20302;-55
2022/01/27 10:28:32;;;;;;;28.77;18.30;;;;;;;2.77;100.00;101144.63;5080667;27;20231;-50
2022/01/27 10:31:00;;;;;;;29.00;17.47;;;;;;;2.84;100.00;101140.50;5076066;28;20262;-53
2022/01/27 10:33:27;;;;;;;24.10;15.90;;;;;;;2.81;100.00;101136.13;5079515;27;20333;-52
2022/01/27 10:35:54;;;;;;;26.67;16.73;;;;;;;2.77;100.00;101154.97;5067564;28;20241;-54
2022/01/27 10:38:20;;;;;;;28.03;16.07;;;;;;;2.73;100.00;101147.00;5079968;27;20237;-53
2022/01/27 10:40:48;;;;;;;26.00;16.07;;;;;;;2.75;100.00;101146.25;5084247;28;20249;-51
2022/01/27 10:43:16;;;;;;;26.00;16.97;;;;;;;2.75;100.00;101130.69;5077608;28;20246;-52
2022/01/27 10:46:00;;;;;;;29.17;16.83;;;;;;;2.85;100.00;101119.84;5080892;28;20300;-54
2022/01/27 10:48:30;;;;;;;29.60;17.33;;;;;;;2.86;100.00;101116.41;5072642;27;20236;-53
2022/01/27 10:51:04;;;;;;;23.27;16.83;;;;;;;2.81;100.00;101105.00;5080597;27;20237;-51
2022/01/27 10:53:55;;;;;;;25.63;17.33;;;;;;;2.93;100.00;101106.25;5078284;28;20232;-52
2022/01/27 10:56:24;;;;;;;27.97;18.37;;;;;;;2.96;100.00;101109.84;5080706;27;20331;-54
2022/01/27 10:58:51;;;;;;;29.60;18.17;;;;;;;2.93;100.00;101109.72;5080405;28;20233;-53
2022/01/27 11:01:25;;;;;;;31.13;17.50;;;;;;;2.93;100.00;101101.06;5078213;27;20288;-52
2022/01/27 11:03:52;;;;;;;31.17;16.90;;;;;;;2.83;100.00;101098.13;5081055;28;20224;-52
2022/01/27 11:06:20;;;;;;;26.73;17.30;;;;;;;2.84;100.00;101097.34;5078910;27;20246;-50
2022/01/27 11:08:47;;;;;;;28.37;17.47;;;;;;;2.98;100.00;101082.25;5080948;27;20230;-52
2022/01/27 11:11:14;;;;;;;30.73;18.13;;;;;;;2.89;100.00;101086.25;5074863;27;20287;-50
2022/01/27 11:13:43;;;;;;;26.93;18.07;;;;;;;2.89;100.00;101070.69;5083231;27;20256;-55
2022/01/27 11:16:13;;;;;;;31.43;17.37;;;;;;;2.79;100.00;101080.72;5072367;28;20850;-52
2022/01/27 11:18:40;;;;;;;26.87;18.63;;;;;;;2.80;100.00;101076.41;5077429;27;20259;-51
2022/01/27 11:21:12;;;;;;;24.30;17.87;;;;;;;3.03;100.00;101077.22;5079162;28;20234;-52
2022/01/27 11:24:00;;;;;;;30.83;17.17;;;;;;;2.82;100.00;101075.63;5073151;28;20735;-51
2022/01/27 11:26:27;;;;;;;24.50;16.60;;;;;;;2.82;100.00;101054.03;5064389;28;20304;-52
2022/01/27 11:28:56;;;;;;;34.07;16.83;;;;;;;2.89;100.00;101055.13;5078594;28;20264;-53
2022/01/27 11:31:34;;;;;;;25.97;15.10;;;;;;;2.87;100.00;101048.16;5078451;28;20297;-52
2022/01/27 11:34:02;;;;;;;25.03;15.67;;;;;;;3.00;100.00;101052.06;5075106;28;20234;-50
2022/01/27 11:36:29;;;;;;;24.63;15.50;;;;;;;2.98;100.00;101045.06;5074165;27;20956;-50
2022/01/27 11:38:57;;;;;;;31.50;16.93;;;;;;;2.91;100.00;101043.94;5073189;27;20252;-52